Time;durP1;ratioP1;P1;durP2;ratioP2;P2;SDS_P1;SDS_P2;PMS_P1;PMS_P2;Temp;Humidity;BMP_temperature;BMP_pressure;BME280_temperature;BME280_humidity;BME280_pressure;Samples;Min_cycle;Max_cycle;Signal;HPM_P1;HPM_P2
2023/08/04 00:01:57;;;;;;;;;;;;;;;13.63;100.00;101054.69;5063571;28;19944;-48
2023/08/04 00:04:22;;;;;;;;;;;;;;;13.59;100.00;101052.91;5062016;28;19935;-52
2023/08/04 00:06:48;;;;;;;;;;;;;;;13.54;100.00;101053.66;5063089;28;20286;-48
2023/08/04 00:09:13;;;;;;;;;;;;;;;13.51;100.00;101058.75;5064919;28;20192;-50
2023/08/04 00:11:38;;;;;;;;;;;;;;;13.45;100.00;101054.34;5058627;28;19955;-50
2023/08/04 00:14:03;;;;;;;;;;;;;;;13.40;100.00;101059.41;5066233;27;19921;-51
2023/08/04 00:16:29;;;;;;;;;;;;;;;13.38;100.00;101061.09;5064022;27;19923;-49
2023/08/04 00:18:54;;;;;;;;;;;;;;;13.36;100.00;101062.78;5061131;28;19969;-48
2023/08/04 00:21:19;;;;;;;;;;;;;;;13.34;100.00;101066.16;5043349;28;19947;-50
2023/08/04 00:23:44;;;;;;;;;;;;;;;13.30;100.00;101062.66;5060129;28;19927;-51
2023/08/04 00:26:10;;;;;;;;;;;;;;;13.25;100.00;101064.28;5065404;28;20046;-48
2023/08/04 00:28:35;;;;;;;;;;;;;;;13.22;100.00;101064.19;5064541;28;19996;-48
2023/08/04 00:31:01;;;;;;;;;;;;;;;13.21;100.00;101064.19;5062889;27;19980;-47
2023/08/04 00:33:26;;;;;;;;;;;;;;;13.18;100.00;101069.25;5068188;28;19924;-48
2023/08/04 00:35:51;;;;;;;;;;;;;;;13.14;100.00;101070.91;5069224;28;19959;-48
2023/08/04 00:38:16;;;;;;;;;;;;;;;13.11;100.00;101060.53;5066868;28;20404;-47
2023/08/04 00:40:42;;;;;;;;;;;;;;;13.08;100.00;101071.63;5066560;28;19985;-47
2023/08/04 00:43:07;;;;;;;;;;;;;;;13.04;100.00;101076.69;5058677;28;19925;-47
2023/08/04 00:45:33;;;;;;;;;;;;;;;13.02;100.00;101073.22;5070082;27;19934;-47
2023/08/04 00:47:58;;;;;;;;;;;;;;;13.03;100.00;101077.53;5059609;27;19928;-47
2023/08/04 00:50:24;;;;;;;;;;;;;;;12.99;100.00;101073.16;5062739;28;19920;-48
2023/08/04 00:52:50;;;;;;;;;;;;;;;12.97;100.00;101077.41;5047703;27;19927;-48
2023/08/04 00:55:16;;;;;;;;;;;;;;;12.98;100.00;101079.13;5067696;28;19931;-47
2023/08/04 00:57:42;;;;;;;;;;;;;;;12.96;100.00;101083.41;5061678;28;19925;-46
2023/08/04 01:00:08;;;;;;;;;;;;;;;12.93;100.00;101084.22;5066600;28;19947;-47
2023/08/04 01:02:33;;;;;;;;;;;;;;;12.94;100.00;101085.97;5045332;28;20382;-47
2023/08/04 01:05:02;;;;;;;;;;;;;;;12.91;100.00;101087.59;5062800;28;19960;-47
2023/08/04 01:07:30;;;;;;;;;;;;;;;12.87;100.00;101090.13;5067597;28;19941;-51
2023/08/04 01:10:16;;;;;;;;;;;;;;;12.84;100.00;101091.75;5061421;28;19942;-48
2023/08/04 01:12:42;;;;;;;;;;;;;;;12.82;100.00;101096.88;5060573;28;19935;-50
2023/08/04 01:15:09;;;;;;;;;;;;;;;12.81;100.00;101099.44;5065294;28;19920;-50
2023/08/04 01:17:35;;;;;;;;;;;;;;;12.79;100.00;101112.28;5052521;27;19932;-51
2023/08/04 01:20:01;;;;;;;;;;;;;;;12.78;100.00;101109.69;5062371;27;19980;-50
2023/08/04 01:22:26;;;;;;;;;;;;;;;12.73;100.00;101101.81;5061688;28;20311;-52
2023/08/04 01:24:52;;;;;;;;;;;;;;;12.70;100.00;101099.19;5065964;28;19924;-51
2023/08/04 01:27:21;;;;;;;;;;;;;;;12.69;100.00;101100.03;5037822;27;20275;-49
2023/08/04 01:29:46;;;;;;;;;;;;;;;12.67;100.00;101106.84;5062598;28;19924;-48
2023/08/04 01:32:12;;;;;;;;;;;;;;;12.65;100.00;101108.53;5064039;28;20416;-50
2023/08/04 01:34:39;;;;;;;;;;;;;;;12.65;100.00;101108.53;5058239;28;20401;-51
2023/08/04 01:37:04;;;;;;;;;;;;;;;12.66;100.00;101109.41;5055998;28;19933;-50
2023/08/04 01:39:30;;;;;;;;;;;;;;;12.66;100.00;101120.59;5065419;27;19936;-50
2023/08/04 01:41:55;;;;;;;;;;;;;;;12.67;100.00;101116.28;5065516;28;20334;-51
2023/08/04 01:44:20;;;;;;;;;;;;;;;12.66;100.00;101123.16;5059500;28;19928;-51
2023/08/04 01:46:45;;;;;;;;;;;;;;;12.65;100.00;101124.00;5063611;28;19924;-51
2023/08/04 01:49:10;;;;;;;;;;;;;;;12.68;100.00;101125.78;5052943;27;19934;-49
2023/08/04 01:51:36;;;;;;;;;;;;;;;12.66;100.00;101120.59;5060844;28;20008;-51
2023/08/04 01:54:01;;;;;;;;;;;;;;;12.66;100.00;101122.28;5068811;28;20290;-49
2023/08/04 01:56:27;;;;;;;;;;;;;;;12.67;100.00;101121.44;5064263;27;19931;-51
2023/08/04 01:58:52;;;;;;;;;;;;;;;12.65;100.00;101125.72;5062822;28;19920;-48
2023/08/04 02:01:18;;;;;;;;;;;;;;;12.64;100.00;101126.56;5056591;27;19928;-49
2023/08/04 02:03:43;;;;;;;;;;;;;;;12.63;100.00;101123.09;5062499;28;20289;-49
2023/08/04 02:06:08;;;;;;;;;;;;;;;12.63;100.00;101125.69;5066966;28;20418;-47
2023/08/04 02:08:34;;;;;;;;;;;;;;;12.64;100.00;101127.44;5063206;28;19923;-48
2023/08/04 02:10:59;;;;;;;;;;;;;;;12.66;100.00;101130.03;5070395;28;19940;-49
2023/08/04 02:13:24;;;;;;;;;;;;;;;12.69;100.00;101130.13;5049752;28;20382;-48
2023/08/04 02:15:49;;;;;;;;;;;;;;;12.72;100.00;101130.19;5069910;28;19931;-47
2023/08/04 02:18:15;;;;;;;;;;;;;;;12.75;100.00;101136.28;5066071;28;19920;-49
2023/08/04 02:20:40;;;;;;;;;;;;;;;12.77;100.00;101137.19;5070692;27;20461;-47
2023/08/04 02:23:05;;;;;;;;;;;;;;;12.80;100.00;101136.38;5057832;28;19998;-47
2023/08/04 02:25:31;;;;;;;;;;;;;;;12.83;100.00;101128.72;5061977;28;19921;-48
2023/08/04 02:27:56;;;;;;;;;;;;;;;12.84;100.00;101133.91;5060991;28;20023;-48
2023/08/04 02:30:21;;;;;;;;;;;;;;;12.86;100.00;101137.41;5063540;28;19928;-47
2023/08/04 02:32:47;;;;;;;;;;;;;;;12.88;100.00;101138.31;5044630;27;19928;-48
2023/08/04 02:35:12;;;;;;;;;;;;;;;12.91;100.00;101145.25;5059076;28;19971;-49
2023/08/04 02:37:37;;;;;;;;;;;;;;;12.94;100.00;101144.47;5036087;28;19925;-47
2023/08/04 02:40:02;;;;;;;;;;;;;;;12.96;100.00;101145.34;5040061;27;19976;-47
2023/08/04 02:42:28;;;;;;;;;;;;;;;12.97;100.00;101142.81;5035095;28;19977;-44
2023/08/04 02:44:54;;;;;;;;;;;;;;;13.00;100.00;101142.03;5042624;28;19921;-44
2023/08/04 02:47:19;;;;;;;;;;;;;;;13.00;100.00;101142.03;5046132;28;19921;-44
2023/08/04 02:49:44;;;;;;;;;;;;;;;13.02;100.00;101148.94;5046603;28;19931;-44
2023/08/04 02:52:14;;;;;;;;;;;;;;;13.04;100.00;101148.97;5041673;27;20375;-44
2023/08/04 02:54:39;;;;;;;;;;;;;;;13.06;100.00;101144.75;5042346;27;19974;-45
2023/08/04 02:57:05;;;;;;;;;;;;;;;13.10;100.00;101149.13;5040632;28;19993;-43
2023/08/04 02:59:30;;;;;;;;;;;;;;;13.11;100.00;101148.31;5032481;28;19929;-44
2023/08/04 03:01:55;;;;;;;;;;;;;;;13.13;100.00;101149.19;5034547;28;19929;-43
2023/08/04 03:04:20;;;;;;;;;;;;;;;13.15;100.00;101148.38;5032703;28;20511;-43
2023/08/04 03:06:46;;;;;;;;;;;;;;;13.19;100.00;101143.28;5037418;28;20126;-44
2023/08/04 03:09:11;;;;;;;;;;;;;;;13.20;100.00;101150.19;5031617;28;19921;-45
2023/08/04 03:11:36;;;;;;;;;;;;;;;13.21;100.00;101155.41;5030978;28;19940;-45
2023/08/04 03:14:02;;;;;;;;;;;;;;;13.24;100.00;101145.19;5031968;28;20364;-44
2023/08/04 03:16:27;;;;;;;;;;;;;;;13.26;100.00;101150.38;5033322;28;19936;-44
2023/08/04 03:18:52;;;;;;;;;;;;;;;13.28;100.00;101154.72;5033918;28;20455;-46
2023/08/04 03:21:18;;;;;;;;;;;;;;;13.28;100.00;101154.72;5035393;28;19928;-45
2023/08/04 03:23:43;;;;;;;;;;;;;;;13.29;100.00;101153.91;5027735;27;19939;-44
2023/08/04 03:26:08;;;;;;;;;;;;;;;13.30;100.00;101165.09;5030863;27;19929;-44
2023/08/04 03:28:33;;;;;;;;;;;;;;;13.30;100.00;101155.63;5032784;28;19968;-45
2023/08/04 03:30:59;;;;;;;;;;;;;;;13.33;100.00;101162.56;5033681;28;19948;-45
2023/08/04 03:33:24;;;;;;;;;;;;;;;13.32;100.00;101163.41;5031673;28;19925;-45
2023/08/04 03:35:50;;;;;;;;;;;;;;;13.33;100.00;101172.91;5030345;28;20024;-44
2023/08/04 03:38:16;;;;;;;;;;;;;;;13.32;100.00;101163.41;5055441;27;19928;-45
2023/08/04 03:40:41;;;;;;;;;;;;;;;13.33;100.00;101167.72;5053265;28;19970;-44
2023/08/04 03:43:07;;;;;;;;;;;;;;;13.34;100.00;101165.16;5052111;28;19974;-44
2023/08/04 03:45:32;;;;;;;;;;;;;;;13.35;100.00;101164.38;5054763;27;19920;-47
2023/08/04 03:47:57;;;;;;;;;;;;;;;13.34;100.00;101165.16;5034091;28;20294;-47
2023/08/04 03:50:24;;;;;;;;;;;;;;;13.33;100.00;101163.44;5054421;28;19972;-47
2023/08/04 03:52:49;;;;;;;;;;;;;;;13.33;100.00;101168.59;5043270;28;20032;-47
2023/08/04 03:55:14;;;;;;;;;;;;;;;13.33;100.00;101163.44;5054022;27;20962;-50
2023/08/04 03:57:39;;;;;;;;;;;;;;;13.33;100.00;101167.72;5057454;28;20342;-48
2023/08/04 04:00:05;;;;;;;;;;;;;;;13.33;100.00;101172.91;5060676;28;19948;-48
2023/08/04 04:02:31;;;;;;;;;;;;;;;13.31;100.00;101174.59;5040361;28;20335;-47
2023/08/04 04:04:56;;;;;;;;;;;;;;;13.29;100.00;101173.69;5061630;28;19940;-48
2023/08/04 04:07:21;;;;;;;;;;;;;;;13.29;100.00;101179.72;5058563;28;20462;-47
2023/08/04 04:09:46;;;;;;;;;;;;;;;13.28;100.00;101175.38;5039011;28;19927;-48
2023/08/04 04:12:11;;;;;;;;;;;;;;;13.28;100.00;101174.50;5062879;27;19925;-48
2023/08/04 04:14:37;;;;;;;;;;;;;;;13.27;100.00;101178.78;5062082;27;19920;-50
2023/08/04 04:17:02;;;;;;;;;;;;;;;13.31;100.00;101179.75;5056459;28;19976;-49
2023/08/04 04:19:28;;;;;;;;;;;;;;;13.31;100.00;101177.16;5061362;28;20416;-47
2023/08/04 04:21:53;;;;;;;;;;;;;;;13.32;100.00;101174.59;5059678;28;20298;-46
2023/08/04 04:24:18;;;;;;;;;;;;;;;13.32;100.00;101172.03;5061173;28;19924;-52
2023/08/04 04:26:43;;;;;;;;;;;;;;;13.34;100.00;101191.00;5058687;27;19973;-48
2023/08/04 04:29:08;;;;;;;;;;;;;;;13.34;100.00;101193.59;5056991;28;19924;-50
2023/08/04 04:31:36;;;;;;;;;;;;;;;13.35;100.00;101194.50;5057004;28;19927;-52
2023/08/04 04:34:02;;;;;;;;;;;;;;;13.37;100.00;101198.84;5060713;28;19933;-50
2023/08/04 04:36:27;;;;;;;;;;;;;;;13.37;100.00;101196.25;5059431;28;20462;-52
2023/08/04 04:38:52;;;;;;;;;;;;;;;13.37;100.00;101200.53;5039155;28;20388;-49
2023/08/04 04:41:17;;;;;;;;;;;;;;;13.35;100.00;101192.78;5060947;28;19931;-48
2023/08/04 04:43:43;;;;;;;;;;;;;;;13.35;100.00;101195.34;5063232;27;19920;-51
2023/08/04 04:46:08;;;;;;;;;;;;;;;13.33;100.00;101199.59;5057085;28;19928;-52
2023/08/04 04:48:34;;;;;;;;;;;;;;;13.32;100.00;101202.16;5064096;28;20394;-48
2023/08/04 04:50:59;;;;;;;;;;;;;;;13.31;100.00;101210.75;5058831;28;19941;-51
2023/08/04 04:53:24;;;;;;;;;;;;;;;13.30;100.00;101209.00;5061577;27;19980;-51
2023/08/04 04:55:50;;;;;;;;;;;;;;;13.27;100.00;101214.94;5053894;27;19977;-51
2023/08/04 04:58:15;;;;;;;;;;;;;;;13.28;100.00;101211.53;5049321;27;20718;-49
2023/08/04 05:00:41;;;;;;;;;;;;;;;13.30;100.00;101217.63;5054990;28;19924;-50
2023/08/04 05:03:08;;;;;;;;;;;;;;;13.33;100.00;101220.25;5060044;27;19971;-48
2023/08/04 05:05:36;;;;;;;;;;;;;;;13.39;100.00;101225.56;5064946;28;19928;-51
2023/08/04 05:08:01;;;;;;;;;;;;;;;13.47;100.00;101222.28;5045483;28;20294;-50
2023/08/04 05:10:26;;;;;;;;;;;;;;;13.53;100.00;101225.88;5065798;28;19921;-47
2023/08/04 05:12:52;;;;;;;;;;;;;;;13.61;100.00;101236.38;5061596;27;19920;-49
2023/08/04 05:15:17;;;;;;;;;;;;;;;13.66;100.00;101232.19;5064441;28;19924;-48
2023/08/04 05:17:42;;;;;;;;;;;;;;;13.71;100.00;101228.00;5047796;28;20015;-49
2023/08/04 05:20:08;;;;;;;;;;;;;;;13.79;100.00;101231.59;5065252;28;19969;-48
2023/08/04 05:22:33;;;;;;;;;;;;;;;13.90;100.00;101232.69;5061384;28;19923;-52
2023/08/04 05:24:58;;;;;;;;;;;;;;;14.02;100.00;101237.25;5063101;28;19924;-47
2023/08/04 05:27:24;;;;;;;;;;;;;;;14.12;100.00;101236.56;5061509;27;20280;-49
2023/08/04 05:29:49;;;;;;;;;;;;;;;14.31;100.00;101242.94;5055841;28;19965;-51
2023/08/04 05:32:14;;;;;;;;;;;;;;;14.42;100.00;101241.44;5061037;28;20264;-50
2023/08/04 05:34:40;;;;;;;;;;;;;;;14.58;100.00;101241.75;5065116;28;19931;-46
2023/08/04 05:37:05;;;;;;;;;;;;;;;14.77;100.00;101238.66;5042555;27;19925;-48
2023/08/04 05:39:32;;;;;;;;;;;;;;;15.26;100.00;101242.00;5042172;28;19921;-49
2023/08/04 05:41:57;;;;;;;;;;;;;;;16.02;100.00;101245.66;5042353;28;19961;-50
2023/08/04 05:44:22;;;;;;;;;;;;;;;16.77;100.00;101243.00;5036914;28;20442;-50
2023/08/04 05:46:48;;;;;;;;;;;;;;;17.47;100.00;101247.81;5039410;28;20023;-49
2023/08/04 05:49:13;;;;;;;;;;;;;;;18.01;100.00;101255.06;5039585;28;19925;-50
2023/08/04 05:51:38;;;;;;;;;;;;;;;18.59;100.00;101265.63;5045399;28;19968;-55
2023/08/04 05:54:03;;;;;;;;;;;;;;;18.98;100.00;101269.16;5046099;28;20661;-51
2023/08/04 05:56:29;;;;;;;;;;;;;;;19.23;100.00;101267.41;5041179;28;19952;-49
2023/08/04 05:58:54;;;;;;;;;;;;;;;19.24;100.00;101271.78;5034072;28;19948;-48
2023/08/04 06:01:19;;;;;;;;;;;;;;;18.81;100.00;101273.50;5039777;28;19929;-50
2023/08/04 06:03:45;;;;;;;;;;;;;;;18.41;100.00;101276.88;5040600;28;19924;-48
2023/08/04 06:06:10;;;;;;;;;;;;;;;18.36;100.00;101277.75;5039584;28;19932;-48
2023/08/04 06:08:36;;;;;;;;;;;;;;;18.32;100.00;101278.59;5044053;28;19966;-51
2023/08/04 06:11:01;;;;;;;;;;;;;;;18.29;100.00;101278.59;5045195;28;20346;-51
2023/08/04 06:13:26;;;;;;;;;;;;;;;18.41;100.00;101291.63;5043500;28;20632;-49
2023/08/04 06:15:52;;;;;;;;;;;;;;;18.73;100.00;101291.72;5035700;28;19925;-50
2023/08/04 06:18:17;;;;;;;;;;;;;;;18.99;100.00;101292.63;5046746;28;19940;-51
2023/08/04 06:20:42;;;;;;;;;;;;;;;19.06;100.00;101303.06;5046851;28;19921;-50
2023/08/04 06:23:08;;;;;;;;;;;;;;;19.00;100.00;101302.19;5040309;28;19925;-49
2023/08/04 06:25:33;;;;;;;;;;;;;;;18.80;100.00;101305.63;5044149;28;19946;-49
2023/08/04 06:27:58;;;;;;;;;;;;;;;18.45;100.00;101301.22;5040138;28;19921;-48
2023/08/04 06:30:25;;;;;;;;;;;;;;;18.18;100.00;101305.44;5040284;27;19956;-52
2023/08/04 06:32:50;;;;;;;;;;;;;;;17.94;100.00;101302.75;5033795;27;19997;-50
2023/08/04 06:35:15;;;;;;;;;;;;;;;17.83;100.00;101312.22;5041061;28;20394;-52
2023/08/04 06:37:41;;;;;;;;;;;;;;;17.77;100.00;101312.19;5051836;28;20019;-48
2023/08/04 06:40:06;;;;;;;;;;;;;;;17.76;100.00;101313.91;5066639;28;19959;-50
2023/08/04 06:42:31;;;;;;;;;;;;;;;17.76;100.00;101313.91;5064932;28;19927;-49
2023/08/04 06:44:56;;;;;;;;;;;;;;;17.73;100.00;101318.25;5061714;28;19931;-51
2023/08/04 06:47:22;;;;;;;;;;;;;;;17.70;100.00;101314.72;5061019;28;19921;-48
2023/08/04 06:49:47;;;;;;;;;;;;;;;17.75;100.00;101322.59;5079877;27;19916;-51
2023/08/04 06:52:12;;;;;;;;;;;;;;;17.76;100.00;101323.44;5056915;28;19929;-52
2023/08/04 06:54:38;;;;;;;;;;;;;;;17.71;100.00;101325.97;5055020;28;19963;-51
2023/08/04 06:57:03;;;;;;;;;;;;;;;17.74;100.00;101325.19;5057556;27;20015;-49
2023/08/04 06:59:29;;;;;;;;;;;;;;;17.69;100.00;101327.72;5059921;28;19965;-51
2023/08/04 07:01:54;;;;;;;;;;;;;;;17.67;100.00;101330.31;5059791;28;19921;-50
2023/08/04 07:04:19;;;;;;;;;;;;;;;17.65;100.00;101329.44;5038739;27;20541;-51
2023/08/04 07:06:45;;;;;;;;;;;;;;;17.67;100.00;101332.03;5063117;28;19932;-51
2023/08/04 07:09:10;;;;;;;;;;;;;;;17.65;100.00;101326.84;5065264;28;19961;-52
2023/08/04 07:11:35;;;;;;;;;;;;;;;17.61;100.00;101337.22;5068764;28;19916;-49
2023/08/04 07:14:01;;;;;;;;;;;;;;;17.58;100.00;101331.97;5061154;28;19969;-51
2023/08/04 07:16:26;;;;;;;;;;;;;;;17.57;100.00;101335.44;5059933;27;20267;-49
2023/08/04 07:18:51;;;;;;;;;;;;;;;17.64;100.00;101338.09;5052370;28;20032;-51
2023/08/04 07:21:17;;;;;;;;;;;;;;;17.79;100.00;101344.28;5056142;28;20294;-52
2023/08/04 07:23:42;;;;;;;;;;;;;;;17.87;100.00;101347.81;5041365;28;19984;-52
2023/08/04 07:26:08;;;;;;;;;;;;;;;17.95;100.00;101348.69;5044313;27;19936;-51
2023/08/04 07:28:34;;;;;;;;;;;;;;;17.92;100.00;101349.56;5058620;28;19927;-51
2023/08/04 07:31:06;;;;;;;;;;;;;;;17.94;100.00;101342.63;5059392;28;19932;-51
2023/08/04 07:33:31;;;;;;;;;;;;;;;18.03;100.00;101343.56;5057172;28;19926;-51
2023/08/04 07:35:57;;;;;;;;;;;;;;;18.09;100.00;101352.28;5053260;27;19921;-52
2023/08/04 07:38:22;;;;;;;;;;;;;;;18.20;100.00;101349.69;5049271;27;20314;-56
2023/08/04 07:40:48;;;;;;;;;;;;;;;18.28;100.00;101355.81;5054279;28;19944;-56
2023/08/04 07:43:13;;;;;;;;;;;;;;;18.26;100.00;101360.16;5055780;27;19920;-56
2023/08/04 07:45:39;;;;;;;;;;;;;;;18.32;100.00;101357.59;5058182;28;19924;-56
2023/08/04 07:48:04;;;;;;;;;;;;;;;18.43;100.00;101355.00;5056129;28;19928;-56
2023/08/04 07:50:29;;;;;;;;;;;;;;;18.39;100.00;101363.69;5056210;28;19924;-56
2023/08/04 07:52:55;;;;;;;;;;;;;;;18.41;100.00;101361.94;5054665;28;20599;-55
2023/08/04 07:55:20;;;;;;;;;;;;;;;18.40;100.00;101365.41;5054246;28;19928;-56
2023/08/04 07:57:45;;;;;;;;;;;;;;;18.47;100.00;101365.44;5039630;27;20446;-57
2023/08/04 08:00:11;;;;;;;;;;;;;;;18.45;100.00;101368.91;5057507;28;19986;-56
2023/08/04 08:02:36;;;;;;;;;;;;;;;18.44;100.00;101362.84;5039449;28;19924;-57
2023/08/04 08:05:02;;;;;;;;;;;;;;;18.48;100.00;101369.78;5058120;28;19920;-56
2023/08/04 08:07:27;;;;;;;;;;;;;;;18.50;100.00;101367.16;5037112;28;19928;-56
2023/08/04 08:09:52;;;;;;;;;;;;;;;18.45;100.00;101377.59;5056640;28;20302;-56
2023/08/04 08:12:17;;;;;;;;;;;;;;;18.53;100.00;101375.00;5054546;27;19929;-57
2023/08/04 08:14:43;;;;;;;;;;;;;;;18.55;100.00;101375.88;5056877;28;19963;-54
2023/08/04 08:17:08;;;;;;;;;;;;;;;18.71;100.00;101376.84;5056308;28;19925;-55
2023/08/04 08:19:33;;;;;;;;;;;;;;;18.97;100.00;101379.50;5057959;28;20052;-53
2023/08/04 08:22:00;;;;;;;;;;;;;;;19.25;100.00;101383.00;5056057;28;19973;-55
2023/08/04 08:24:25;;;;;;;;;;;;;;;19.43;100.00;101384.75;5054214;28;20016;-56
2023/08/04 08:26:50;;;;;;;;;;;;;;;19.37;100.00;101385.63;5057546;28;20060;-55
2023/08/04 08:29:15;;;;;;;;;;;;;;;19.30;100.00;101391.72;5040333;28;20082;-55
2023/08/04 08:31:41;;;;;;;;;;;;;;;19.13;100.00;101396.03;5056067;28;19921;-55
2023/08/04 08:34:06;;;;;;;;;;;;;;;18.99;100.00;101383.84;5057986;27;20160;-56
2023/08/04 08:36:31;;;;;;;;;;;;;;;18.82;100.00;101395.09;5060831;28;19932;-55
2023/08/04 08:38:56;;;;;;;;;;;;;;;18.60;100.00;101400.19;5061660;28;19925;-52
2023/08/04 08:41:22;;;;;;;;;;;;;;;18.43;100.00;101401.88;5061430;28;20015;-54
2023/08/04 08:43:48;;;;;;;;;;;;;;;18.27;100.00;101406.16;5059469;28;19927;-55
2023/08/04 08:46:13;;;;;;;;;;;;;;;18.31;100.00;101397.47;5051497;27;19924;-54
2023/08/04 08:48:42;;;;;;;;;;;;;;;18.38;100.00;101404.47;5038475;27;19925;-51
2023/08/04 08:51:08;;;;;;;;;;;;;;;18.43;100.00;101402.72;5049734;28;19924;-51
2023/08/04 08:53:33;;;;;;;;;;;;;;;18.54;100.00;101410.59;5050642;28;19935;-49
2023/08/04 08:56:00;;;;;;;;;;;;;;;18.70;100.00;101412.44;5052646;28;19925;-52
2023/08/04 08:58:27;;;;;;;;;;;;;;;18.86;94.57;101415.94;5052108;28;19929;-47
2023/08/04 09:00:53;;;;;;;;;;;;;;;19.00;95.35;101413.41;5052432;28;19921;-46
2023/08/04 09:03:18;;;;;;;;;;;;;;;19.13;93.23;101419.50;5055662;28;19927;-51
2023/08/04 09:05:43;;;;;;;;;;;;;;;19.22;90.90;101412.53;5062291;28;19928;-48
2023/08/04 09:08:09;;;;;;;;;;;;;;;19.32;90.04;101415.16;5065369;27;19927;-47
2023/08/04 09:10:36;;;;;;;;;;;;;;;19.40;93.28;101413.44;5058403;27;19920;-47
2023/08/04 09:13:02;;;;;;;;;;;;;;;19.51;91.58;101414.31;5047912;28;19921;-48
2023/08/04 09:15:53;;;;;;;;;;;;;;;19.69;93.42;101419.56;5058556;28;20385;-51
2023/08/04 09:18:29;;;;;;;;;;;;;;;19.90;93.98;101415.16;5046974;28;19924;-50
2023/08/04 09:20:56;;;;;;;;;;;;;;;19.95;89.65;101416.03;5064849;28;20383;-49
2023/08/04 09:23:22;;;;;;;;;;;;;;;19.81;87.18;101423.88;5065212;28;19968;-48
2023/08/04 09:25:52;;;;;;;;;;;;;;;19.65;87.18;101423.03;5065285;28;20023;-51
2023/08/04 09:28:17;;;;;;;;;;;;;;;19.48;88.20;101425.63;5061338;28;20387;-51
2023/08/04 09:30:59;;;;;;;;;;;;;;;19.38;90.42;101428.22;5053653;28;20422;-47
2023/08/04 09:33:24;;;;;;;;;;;;;;;19.26;91.71;101429.94;5058981;28;19924;-48
2023/08/04 09:35:49;;;;;;;;;;;;;;;19.17;89.87;101426.44;5061028;28;19921;-52
2023/08/04 09:38:15;;;;;;;;;;;;;;;19.02;86.54;101430.75;5057118;28;19925;-49
2023/08/04 09:40:40;;;;;;;;;;;;;;;18.81;87.11;101435.03;5057174;28;20453;-51
2023/08/04 09:43:05;;;;;;;;;;;;;;;18.68;87.41;101435.00;5064612;28;20454;-52
2023/08/04 09:45:32;;;;;;;;;;;;;;;18.68;91.53;101431.50;5059908;28;19924;-48
2023/08/04 09:47:57;;;;;;;;;;;;;;;18.72;92.09;101436.75;5060763;28;20007;-51
2023/08/04 09:50:23;;;;;;;;;;;;;;;18.85;91.98;101435.06;5049713;28;19964;-51
2023/08/04 09:53:00;;;;;;;;;;;;;;;18.94;91.65;101427.28;5067170;28;19921;-48
2023/08/04 09:55:26;;;;;;;;;;;;;;;19.10;92.71;101425.56;5043931;28;19916;-49
2023/08/04 09:57:51;;;;;;;;;;;;;;;19.23;92.31;101423.84;5055740;28;20031;-48
2023/08/04 10:00:17;;;;;;;;;;;;;;;19.43;90.64;101423.88;5038959;28;19972;-49
2023/08/04 10:02:42;;;;;;;;;;;;;;;19.69;94.26;101426.50;5052907;28;19929;-50
2023/08/04 10:05:09;;;;;;;;;;;;;;;20.04;90.41;101429.94;5057327;28;19916;-51
2023/08/04 10:07:36;;;;;;;;;;;;;;;20.21;90.18;101422.09;5059794;28;19921;-52
2023/08/04 10:10:03;;;;;;;;;;;;;;;20.26;89.64;101422.06;5041356;28;19948;-48
2023/08/04 10:12:30;;;;;;;;;;;;;;;20.02;83.90;101430.81;5065388;28;19917;-49
2023/08/04 10:14:55;;;;;;;;;;;;;;;19.95;88.62;101429.94;5059217;28;19913;-49
2023/08/04 10:17:21;;;;;;;;;;;;;;;20.07;86.67;101436.91;5060435;28;20383;-49
2023/08/04 10:19:46;;;;;;;;;;;;;;;20.03;87.00;101437.78;5057255;28;19932;-49
2023/08/04 10:22:12;;;;;;;;;;;;;;;20.01;89.18;101436.91;5053683;28;20173;-50
2023/08/04 10:24:40;;;;;;;;;;;;;;;19.92;84.27;101435.19;5043521;28;19916;-51
2023/08/04 10:27:13;;;;;;;;;;;;;;;19.86;89.14;101432.59;5061966;28;20030;-51
2023/08/04 10:29:40;;;;;;;;;;;;;;;19.78;87.91;101432.59;5066244;28;19999;-50
2023/08/04 10:32:08;;;;;;;;;;;;;;;19.91;89.12;101435.19;5065151;27;19917;-52
2023/08/04 10:34:37;;;;;;;;;;;;;;;20.11;88.59;101435.16;5059108;28;19917;-51
2023/08/04 10:37:04;;;;;;;;;;;;;;;20.29;86.73;101440.34;5059541;28;19956;-52
2023/08/04 10:39:39;;;;;;;;;;;;;;;20.46;86.72;101438.56;5059505;28;19956;-55
2023/08/04 10:42:12;;;;;;;;;;;;;;;20.65;85.69;101438.50;5048374;28;19920;-52
2023/08/04 10:44:50;;;;;;;;;;;;;;;20.69;86.08;101440.22;5047727;28;19924;-45
2023/08/04 10:47:28;;;;;;;;;;;;;;;20.55;85.36;101441.13;5052780;28;19959;-44
2023/08/04 10:49:53;;;;;;;;;;;;;;;20.51;83.69;101446.41;5049645;28;19982;-45
2023/08/04 10:52:19;;;;;;;;;;;;;;;20.58;85.17;101445.50;5032312;27;19993;-43
2023/08/04 10:54:45;;;;;;;;;;;;;;;20.71;81.88;101449.78;5052303;28;20357;-44
2023/08/04 10:57:17;;;;;;;;;;;;;;;20.77;83.92;101444.53;5047541;28;19982;-47
2023/08/04 10:59:43;;;;;;;;;;;;;;;20.87;83.81;101448.84;5047676;28;21468;-45
2023/08/04 11:02:08;;;;;;;;;;;;;;;20.94;81.63;101446.22;5048306;28;19928;-45
2023/08/04 11:04:37;;;;;;;;;;;;;;;21.01;80.50;101450.53;5036311;28;19943;-45
2023/08/04 11:07:03;;;;;;;;;;;;;;;21.07;81.87;101448.75;5046117;28;20118;-44
2023/08/04 11:09:28;;;;;;;;;;;;;;;20.96;82.68;101447.06;5052780;27;19921;-47
2023/08/04 11:11:54;;;;;;;;;;;;;;;20.81;80.68;101461.06;5038396;27;20934;-48
2023/08/04 11:14:19;;;;;;;;;;;;;;;20.36;82.94;101463.81;5041906;28;19920;-46
2023/08/04 11:16:46;;;;;;;;;;;;;;;19.62;89.90;101480.44;5044349;28;20101;-51
2023/08/04 11:19:11;;;;;;;;;;;;;;;19.09;93.19;101477.69;5043879;28;20016;-48
2023/08/04 11:21:36;;;;;;;;;;;;;;;18.59;96.87;101474.00;5030238;28;19999;-51
2023/08/04 11:24:02;;;;;;;;;;;;;;;18.20;97.56;101472.94;5036850;28;19920;-51
2023/08/04 11:26:29;;;;;;;;;;;;;;;17.98;99.27;101471.03;5055596;27;19924;-48
2023/08/04 11:29:00;;;;;;;;;;;;;;;17.86;100.00;101483.94;5051468;27;19928;-50
2023/08/04 11:31:26;;;;;;;;;;;;;;;17.83;100.00;101482.16;5052825;28;19940;-50
2023/08/04 11:33:52;;;;;;;;;;;;;;;17.94;100.00;101482.25;5050155;28;19927;-52
2023/08/04 11:36:17;;;;;;;;;;;;;;;18.08;100.00;101480.66;5046944;28;19960;-53
2023/08/04 11:38:43;;;;;;;;;;;;;;;18.22;100.00;101479.00;5053251;28;20003;-51
2023/08/04 11:41:11;;;;;;;;;;;;;;;18.44;100.00;101481.72;5053149;28;19972;-50
2023/08/04 11:43:36;;;;;;;;;;;;;;;18.58;99.63;101480.06;5046943;27;19931;-55
2023/08/04 11:46:06;;;;;;;;;;;;;;;18.63;100.00;101473.16;5046391;28;19929;-51
2023/08/04 11:48:32;;;;;;;;;;;;;;;18.76;100.00;101476.72;5047764;28;19931;-52
2023/08/04 11:50:58;;;;;;;;;;;;;;;18.92;99.38;101480.22;5048141;27;19920;-53
2023/08/04 11:53:23;;;;;;;;;;;;;;;19.00;99.28;101487.22;5042950;28;19950;-50
2023/08/04 11:55:56;;;;;;;;;;;;;;;19.02;98.26;101482.03;5043383;28;19929;-52
2023/08/04 11:58:38;;;;;;;;;;;;;;;19.07;98.17;101489.88;5045745;28;19924;-51
2023/08/04 12:01:04;;;;;;;;;;;;;;;19.21;99.21;101493.38;5049520;28;20160;-50
2023/08/04 12:03:40;;;;;;;;;;;;;;;19.28;96.59;101495.97;5050850;28;19975;-52
2023/08/04 12:06:11;;;;;;;;;;;;;;;19.34;98.34;101495.13;5047459;28;21048;-50
2023/08/04 12:08:37;;;;;;;;;;;;;;;19.44;96.73;101491.69;5024682;28;19970;-52
2023/08/04 12:11:02;;;;;;;;;;;;;;;19.51;95.42;101500.38;5041043;28;20032;-51
2023/08/04 12:13:36;;;;;;;;;;;;;;;19.52;97.31;101499.50;5046026;28;20324;-52
2023/08/04 12:16:01;;;;;;;;;;;;;;;19.43;97.68;101502.13;5033082;28;20286;-52
2023/08/04 12:18:28;;;;;;;;;;;;;;;19.37;96.43;101502.09;5052370;28;19935;-52
2023/08/04 12:20:53;;;;;;;;;;;;;;;19.33;98.07;101496.00;5035108;28;20023;-50
2023/08/04 12:23:18;;;;;;;;;;;;;;;19.39;98.69;101500.34;5053484;28;20087;-49